createdAt,value
2022-10-17T00:01:32.866Z,7.59
2022-10-17T00:03:59.512Z,7.30
2022-10-17T00:06:26.149Z,7.43
2022-10-17T00:08:52.844Z,7.20
2022-10-17T00:11:22.815Z,7.23
2022-10-17T00:13:50.158Z,7.17
2022-10-17T00:16:34.555Z,7.09
2022-10-17T00:19:01.226Z,7.14
2022-10-17T00:21:29.421Z,7.24
2022-10-17T00:23:56.249Z,7.18
2022-10-17T00:26:23.453Z,7.39
2022-10-17T00:28:51.654Z,7.28
2022-10-17T00:31:20.284Z,6.99
2022-10-17T00:33:47.642Z,7.19
2022-10-17T00:36:21.035Z,7.10
2022-10-17T00:38:50.434Z,7.47
2022-10-17T00:41:19.524Z,7.53
2022-10-17T00:43:58.209Z,7.48
2022-10-17T00:46:30.904Z,7.31
2022-10-17T00:49:00.790Z,7.41
2022-10-17T00:51:47.513Z,7.45
2022-10-17T00:54:17.543Z,7.55
2022-10-17T00:56:46.807Z,7.55
2022-10-17T00:59:16.184Z,7.49
2022-10-17T01:01:51.688Z,7.37
2022-10-17T01:04:19.503Z,7.29
2022-10-17T01:06:46.097Z,7.17
2022-10-17T01:09:12.807Z,7.06
2022-10-17T01:11:50.872Z,7.08
2022-10-17T01:14:17.453Z,7.07
2022-10-17T01:17:20.249Z,7.01
2022-10-17T01:20:11.775Z,7.15
2022-10-17T01:23:09.602Z,7.12
2022-10-17T01:25:44.888Z,7.03
2022-10-17T01:28:49.939Z,6.96
2022-10-17T01:31:23.070Z,6.96
2022-10-17T01:34:14.618Z,6.93
2022-10-17T01:37:04.443Z,7.04
2022-10-17T01:40:00.350Z,6.86
2022-10-17T01:42:31.589Z,6.92
2022-10-17T01:45:06.787Z,6.89
2022-10-17T01:47:34.694Z,6.93
2022-10-17T01:50:07.808Z,7.12
2022-10-17T01:52:40.074Z,7.32
2022-10-17T01:55:12.650Z,7.37
2022-10-17T01:57:44.027Z,7.46
2022-10-17T02:00:17.027Z,7.37
2022-10-17T02:02:46.661Z,7.14
2022-10-17T02:05:13.251Z,7.07
2022-10-17T02:07:41.930Z,7.00
2022-10-17T02:10:31.931Z,7.03
2022-10-17T02:13:18.621Z,7.05
2022-10-17T02:15:57.500Z,7.11
2022-10-17T02:18:50.405Z,7.13
2022-10-17T02:21:38.116Z,7.14
2022-10-17T02:24:19.253Z,7.02
2022-10-17T02:26:59.016Z,7.01
2022-10-17T02:29:35.415Z,7.05
2022-10-17T02:34:50.468Z,7.00
2022-10-17T02:37:22.511Z,7.09
2022-10-17T02:39:50.850Z,6.82
2022-10-17T02:42:18.839Z,6.94
2022-10-17T02:44:46.415Z,6.81
2022-10-17T02:47:36.684Z,6.79
2022-10-17T02:50:04.249Z,6.96
2022-10-17T02:52:43.456Z,6.85
2022-10-17T02:55:16.670Z,6.90
2022-10-17T02:57:51.353Z,7.04
2022-10-17T03:00:19.136Z,7.11
2022-10-17T03:02:48.938Z,7.13
2022-10-17T03:05:20.875Z,7.09
2022-10-17T03:07:47.598Z,6.98
2022-10-17T03:10:14.341Z,6.99
2022-10-17T03:12:40.951Z,6.71
2022-10-17T03:15:07.977Z,6.78
2022-10-17T03:17:35.447Z,6.74
2022-10-17T03:20:02.332Z,6.96
2022-10-17T03:22:29.027Z,6.88
2022-10-17T03:24:55.791Z,6.96
2022-10-17T03:27:22.617Z,6.68
2022-10-17T03:29:49.309Z,6.89
2022-10-17T03:32:15.968Z,6.93
2022-10-17T03:34:42.588Z,6.68
2022-10-17T03:37:09.176Z,6.99
2022-10-17T03:39:35.766Z,6.69
2022-10-17T03:42:02.424Z,7.02
2022-10-17T03:44:29.025Z,6.99
2022-10-17T03:46:55.609Z,6.49
2022-10-17T03:49:22.246Z,7.04
2022-10-17T03:51:48.857Z,7.04
2022-10-17T03:54:15.447Z,6.76
2022-10-17T03:56:43.427Z,6.65
2022-10-17T03:59:14.985Z,6.58
2022-10-17T04:01:42.104Z,6.60
2022-10-17T04:04:09.431Z,6.45
2022-10-17T04:06:36.611Z,6.55
2022-10-17T04:09:04.729Z,6.42
2022-10-17T04:11:31.372Z,6.53
2022-10-17T04:13:59.683Z,6.60
2022-10-17T04:16:26.815Z,6.66
2022-10-17T04:18:58.350Z,6.41
2022-10-17T04:21:28.928Z,6.09
2022-10-17T04:23:57.567Z,6.29
2022-10-17T04:26:24.596Z,6.34
2022-10-17T04:28:51.520Z,5.96
2022-10-17T04:31:18.869Z,6.00
2022-10-17T04:33:50.155Z,5.95
2022-10-17T04:36:19.483Z,5.65
2022-10-17T04:38:46.781Z,6.17
2022-10-17T04:41:15.955Z,6.16
2022-10-17T04:43:45.584Z,5.88
2022-10-17T04:46:15.670Z,6.05
2022-10-17T04:48:42.613Z,6.25
2022-10-17T04:51:12.951Z,6.22
2022-10-17T04:53:40.779Z,6.14
2022-10-17T04:56:13.308Z,5.88
2022-10-17T04:58:40.987Z,6.17
2022-10-17T05:01:09.527Z,6.01
2022-10-17T05:03:36.400Z,6.30
2022-10-17T05:06:08.110Z,6.16
2022-10-17T05:08:35.716Z,6.39
2022-10-17T05:11:03.026Z,6.32
2022-10-17T05:13:29.765Z,6.66
2022-10-17T05:16:02.260Z,6.39
2022-10-17T05:18:29.374Z,6.53
2022-10-17T05:20:56.231Z,6.66
2022-10-17T05:23:23.195Z,6.56
2022-10-17T05:25:55.018Z,6.74
2022-10-17T05:28:22.382Z,6.57
2022-10-17T05:30:49.124Z,6.61
2022-10-17T05:33:16.025Z,6.83
2022-10-17T05:35:42.752Z,6.84
2022-10-17T05:38:09.339Z,7.00
2022-10-17T05:40:36.029Z,7.02
2022-10-17T05:43:02.623Z,7.05
2022-10-17T05:45:29.239Z,7.17
2022-10-17T05:47:55.852Z,7.28
2022-10-17T05:50:24.097Z,7.36
2022-10-17T05:52:54.175Z,7.39
2022-10-17T05:55:20.979Z,7.38
2022-10-17T05:57:47.599Z,7.29
2022-10-17T06:00:14.744Z,7.64
2022-10-17T06:02:41.957Z,7.58
2022-10-17T06:05:08.841Z,7.64
2022-10-17T06:07:35.979Z,7.98
2022-10-17T06:10:02.666Z,7.93
2022-10-17T06:12:29.498Z,8.06
2022-10-17T06:14:56.281Z,8.29
2022-10-17T06:17:23.073Z,8.41
2022-10-17T06:19:49.675Z,8.75
2022-10-17T06:22:16.504Z,8.85
2022-10-17T06:24:43.172Z,8.92
2022-10-17T06:27:11.946Z,9.08
2022-10-17T06:29:39.108Z,9.05
2022-10-17T06:32:07.730Z,9.44
2022-10-17T06:34:36.577Z,9.56
2022-10-17T06:37:03.284Z,9.93
2022-10-17T06:39:34.046Z,10.03
2022-10-17T06:42:01.697Z,10.25
2022-10-17T06:44:32.006Z,10.30
2022-10-17T06:47:00.019Z,10.67
2022-10-17T06:49:27.533Z,10.82
2022-10-17T06:51:54.836Z,10.82
2022-10-17T06:54:21.544Z,11.09
2022-10-17T06:56:48.166Z,11.24
2022-10-17T06:59:15.755Z,11.34
2022-10-17T07:01:46.047Z,11.31
2022-10-17T07:04:14.460Z,11.54
2022-10-17T07:06:41.399Z,11.67
2022-10-17T07:09:08.201Z,11.85
2022-10-17T07:11:35.239Z,11.69
2022-10-17T07:14:02.197Z,11.72
2022-10-17T07:16:29.033Z,11.85
2022-10-17T07:18:56.166Z,12.04
2022-10-17T07:21:22.807Z,12.15
2022-10-17T07:23:49.715Z,12.37
2022-10-17T07:26:17.568Z,12.50
2022-10-17T07:28:45.884Z,12.57
2022-10-17T07:31:16.065Z,12.54
2022-10-17T07:33:43.771Z,12.68
2022-10-17T07:36:11.209Z,12.82
2022-10-17T07:38:37.979Z,13.15
2022-10-17T07:41:06.994Z,13.10
2022-10-17T07:43:34.421Z,13.18
2022-10-17T07:46:02.348Z,13.17
2022-10-17T07:48:29.402Z,13.30
2022-10-17T07:50:56.032Z,13.24
2022-10-17T07:53:22.659Z,13.43
2022-10-17T07:55:49.829Z,13.59
2022-10-17T07:58:16.700Z,13.77
2022-10-17T08:00:43.565Z,13.70
2022-10-17T08:03:11.077Z,13.83
2022-10-17T08:05:37.702Z,13.98
2022-10-17T08:08:04.490Z,13.89
2022-10-17T08:10:31.174Z,14.33
2022-10-17T08:12:58.711Z,14.52
2022-10-17T08:15:29.403Z,14.76
2022-10-17T08:17:59.449Z,14.73
2022-10-17T08:20:26.243Z,14.89
2022-10-17T08:22:54.350Z,15.15
2022-10-17T08:25:21.695Z,15.12
2022-10-17T08:27:48.831Z,15.40
2022-10-17T08:30:15.962Z,15.63
2022-10-17T08:32:42.831Z,15.74
2022-10-17T08:35:09.808Z,15.67
2022-10-17T08:37:36.591Z,15.87
2022-10-17T08:40:03.972Z,15.96
2022-10-17T08:42:45.831Z,16.18
2022-10-17T08:45:29.745Z,16.22
2022-10-17T08:47:59.897Z,16.41
2022-10-17T08:50:47.943Z,16.56
2022-10-17T08:53:58.739Z,16.72
2022-10-17T08:56:49.544Z,16.86
2022-10-17T08:59:36.688Z,16.99
2022-10-17T09:02:14.287Z,17.00
2022-10-17T09:05:24.046Z,17.28
2022-10-17T09:08:20.089Z,17.47
2022-10-17T09:11:02.531Z,17.59
2022-10-17T09:13:49.298Z,17.53
2022-10-17T09:16:24.981Z,17.80
2022-10-17T09:19:02.988Z,17.84
2022-10-17T09:21:42.911Z,17.74
2022-10-17T09:24:20.722Z,17.69
2022-10-17T09:26:47.345Z,18.00
2022-10-17T09:29:28.625Z,18.20
2022-10-17T09:32:17.351Z,18.39
2022-10-17T09:34:44.181Z,18.29
2022-10-17T09:37:14.474Z,17.71
2022-10-17T09:39:42.312Z,18.45
2022-10-17T09:42:13.884Z,18.58
2022-10-17T09:44:45.494Z,18.60
2022-10-17T09:47:27.298Z,18.85
2022-10-17T09:49:54.224Z,18.70
2022-10-17T09:52:29.474Z,18.61
2022-10-17T09:55:15.723Z,18.90
2022-10-17T09:57:59.038Z,19.11
2022-10-17T10:00:34.580Z,18.92
2022-10-17T10:03:21.815Z,19.35
2022-10-17T10:06:06.767Z,19.38
2022-10-17T10:08:49.665Z,19.18
2022-10-17T10:11:17.769Z,19.30
2022-10-17T10:13:46.345Z,19.22
2022-10-17T10:16:16.167Z,19.59
2022-10-17T10:18:45.422Z,19.45
2022-10-17T10:21:15.346Z,19.60
2022-10-17T10:23:44.196Z,19.41
2022-10-17T10:26:23.976Z,19.73
2022-10-17T10:28:54.804Z,19.61
2022-10-17T10:31:31.499Z,19.79
2022-10-17T10:34:01.309Z,19.63
2022-10-17T10:36:44.510Z,19.78
2022-10-17T10:39:36.869Z,19.78
2022-10-17T10:42:07.500Z,19.85
2022-10-17T10:44:36.769Z,19.78
2022-10-17T10:47:17.286Z,20.01
2022-10-17T10:49:44.666Z,20.02
2022-10-17T10:52:43.308Z,20.08
2022-10-17T10:55:24.959Z,20.02
2022-10-17T10:57:55.989Z,20.04
2022-10-17T11:00:27.583Z,20.28
2022-10-17T11:02:54.272Z,20.39
2022-10-17T11:05:35.727Z,20.24
2022-10-17T11:08:36.206Z,20.21
2022-10-17T11:11:18.150Z,20.06
2022-10-17T11:13:53.377Z,20.11
2022-10-17T11:16:29.899Z,20.36
2022-10-17T11:18:59.509Z,20.39
2022-10-17T11:21:44.072Z,20.59
2022-10-17T11:24:24.805Z,20.53
2022-10-17T11:27:06.398Z,20.59
2022-10-17T11:29:39.494Z,20.64
2022-10-17T11:32:13.858Z,20.53
2022-10-17T11:34:46.031Z,20.19
2022-10-17T11:37:19.000Z,20.45
2022-10-17T11:39:52.057Z,20.74
2022-10-17T11:42:27.535Z,20.49
2022-10-17T11:45:03.227Z,20.44
2022-10-17T11:47:47.156Z,20.38
2022-10-17T11:53:14.956Z,20.25
2022-10-17T11:55:43.549Z,20.54
2022-10-17T11:58:30.717Z,20.49
2022-10-17T12:01:03.395Z,20.81
2022-10-17T12:04:04.147Z,20.81
2022-10-17T12:07:06.067Z,20.72
2022-10-17T12:09:46.092Z,20.74
2022-10-17T12:12:27.082Z,20.63
2022-10-17T12:14:54.470Z,20.65
2022-10-17T12:17:33.086Z,20.74
2022-10-17T12:20:24.890Z,20.63
2022-10-17T12:22:51.495Z,20.65
2022-10-17T12:25:31.602Z,20.39
2022-10-17T12:28:07.609Z,20.44
2022-10-17T12:30:35.040Z,20.46
2022-10-17T12:33:25.720Z,20.56
2022-10-17T12:36:27.090Z,20.59
2022-10-17T12:38:56.615Z,20.59
2022-10-17T12:41:38.533Z,20.62
2022-10-17T12:44:14.643Z,20.60
2022-10-17T12:46:51.245Z,20.50
2022-10-17T12:49:38.090Z,20.49
2022-10-17T12:52:06.484Z,20.38
2022-10-17T12:54:47.686Z,20.31
2022-10-17T12:57:43.272Z,20.33
2022-10-17T13:00:15.936Z,20.20
2022-10-17T13:02:43.044Z,20.03
2022-10-17T13:05:16.760Z,19.91
2022-10-17T13:07:47.239Z,19.98
2022-10-17T13:10:23.901Z,20.11
2022-10-17T13:12:53.876Z,19.97
2022-10-17T13:15:21.138Z,19.77
2022-10-17T13:17:56.138Z,19.84
2022-10-17T13:20:29.060Z,19.91
2022-10-17T13:22:58.828Z,19.80
2022-10-17T13:25:27.545Z,19.92
2022-10-17T13:28:12.011Z,19.58
2022-10-17T13:30:38.709Z,19.78
2022-10-17T13:33:27.812Z,19.75
2022-10-17T13:36:01.671Z,19.58
2022-10-17T13:38:32.600Z,19.78
2022-10-17T13:41:30.138Z,19.60
2022-10-17T13:43:48.003Z,19.59
2022-10-17T13:46:38.045Z,19.53
2022-10-17T13:49:23.304Z,19.59
2022-10-17T13:51:54.296Z,19.44
2022-10-17T13:54:40.631Z,19.57
2022-10-17T13:57:19.837Z,19.46
2022-10-17T13:59:50.132Z,19.29
2022-10-17T14:02:23.076Z,19.42
2022-10-17T14:05:17.792Z,19.41
2022-10-17T14:10:42.530Z,19.30
2022-10-17T14:13:22.358Z,19.33
2022-10-17T14:15:49.468Z,19.08
2022-10-17T14:18:24.164Z,19.17
2022-10-17T14:23:44.785Z,18.88
2022-10-17T14:26:16.990Z,19.09
2022-10-17T14:28:47.132Z,19.10
2022-10-17T14:31:29.473Z,18.81
2022-10-17T14:33:56.717Z,18.80
2022-10-17T14:36:42.739Z,18.73
2022-10-17T14:39:20.443Z,18.73
2022-10-17T14:41:48.032Z,18.65
2022-10-17T14:44:21.697Z,18.76
2022-10-17T14:46:52.904Z,18.68
2022-10-17T14:49:40.882Z,18.54
2022-10-17T14:52:18.391Z,18.43
2022-10-17T14:54:49.692Z,18.40
2022-10-17T14:57:31.712Z,18.32
2022-10-17T14:59:58.937Z,18.13
2022-10-17T15:02:29.536Z,17.93
2022-10-17T15:04:56.652Z,17.39
2022-10-17T15:07:24.099Z,17.77
2022-10-17T15:09:53.234Z,17.70
2022-10-17T15:12:23.602Z,17.15
2022-10-17T15:14:51.632Z,17.53
2022-10-17T15:17:27.066Z,17.53
2022-10-17T15:19:53.875Z,17.23
2022-10-17T15:22:20.626Z,17.14
2022-10-17T15:24:47.668Z,17.08
2022-10-17T15:27:23.482Z,16.69
2022-10-17T15:29:51.743Z,16.86
2022-10-17T15:32:18.794Z,16.62
2022-10-17T15:34:45.533Z,16.17
2022-10-17T15:37:24.440Z,16.29
2022-10-17T15:39:55.278Z,16.15
2022-10-17T15:42:23.699Z,15.50
2022-10-17T15:44:50.533Z,15.68
2022-10-17T15:47:26.088Z,15.65
2022-10-17T15:49:54.261Z,15.40
2022-10-17T15:52:22.072Z,15.22
2022-10-17T15:54:48.739Z,14.94
2022-10-17T15:57:24.724Z,14.83
2022-10-17T15:59:52.406Z,14.71
2022-10-17T16:02:20.547Z,14.56
2022-10-17T16:04:48.833Z,14.39
2022-10-17T16:07:15.565Z,13.98
2022-10-17T16:09:42.150Z,13.97
2022-10-17T16:12:26.625Z,13.89
2022-10-17T16:14:53.273Z,13.36
2022-10-17T16:17:20.109Z,13.49
2022-10-17T16:19:46.760Z,13.42
2022-10-17T16:22:32.713Z,13.16
2022-10-17T16:25:07.641Z,13.08
2022-10-17T16:27:34.296Z,12.92
2022-10-17T16:30:01.005Z,12.86
2022-10-17T16:32:27.785Z,12.80
2022-10-17T16:34:54.472Z,12.64
2022-10-17T16:37:21.090Z,12.66
2022-10-17T16:39:52.444Z,12.54
2022-10-17T16:42:20.683Z,12.52
2022-10-17T16:44:48.512Z,12.41
2022-10-17T16:47:15.508Z,12.14
2022-10-17T16:49:45.183Z,12.01
2022-10-17T16:52:12.820Z,11.92
2022-10-17T16:54:39.489Z,11.96
2022-10-17T16:57:06.128Z,11.95
2022-10-17T16:59:32.768Z,11.76
2022-10-17T17:01:59.496Z,11.77
2022-10-17T17:04:26.255Z,11.65
2022-10-17T17:06:52.923Z,11.49
2022-10-17T17:09:19.749Z,11.31
2022-10-17T17:11:46.460Z,11.34
2022-10-17T17:14:13.341Z,11.33
2022-10-17T17:16:40.088Z,11.16
2022-10-17T17:19:08.656Z,11.21
2022-10-17T17:21:35.700Z,11.12
2022-10-17T17:24:04.109Z,11.05
2022-10-17T17:26:33.853Z,11.03
2022-10-17T17:29:00.575Z,10.70
2022-10-17T17:31:30.901Z,10.61
2022-10-17T17:33:57.924Z,10.81
2022-10-17T17:36:31.449Z,10.78
2022-10-17T17:39:00.661Z,10.77
2022-10-17T17:41:28.045Z,10.58
2022-10-17T17:43:55.811Z,10.52
2022-10-17T17:46:23.976Z,9.87
2022-10-17T17:48:51.754Z,10.44
2022-10-17T17:51:21.772Z,10.34
2022-10-17T17:53:54.380Z,10.38
2022-10-17T17:56:26.868Z,10.37
2022-10-17T17:59:01.745Z,10.33
2022-10-17T18:01:31.940Z,10.29
2022-10-17T18:03:59.161Z,10.15
2022-10-17T18:06:26.899Z,10.15
2022-10-17T18:08:56.304Z,10.06
2022-10-17T18:11:22.930Z,9.84
2022-10-17T18:13:54.660Z,9.74
2022-10-17T18:16:21.329Z,9.66
2022-10-17T18:18:47.975Z,9.70
2022-10-17T18:21:14.784Z,9.26
2022-10-17T18:23:43.059Z,9.63
2022-10-17T18:26:10.212Z,9.46
2022-10-17T18:28:39.429Z,9.62
2022-10-17T18:31:07.919Z,9.42
2022-10-17T18:33:35.321Z,9.31
2022-10-17T18:36:07.063Z,9.29
2022-10-17T18:38:34.191Z,9.29
2022-10-17T18:41:09.803Z,9.36
2022-10-17T18:43:37.975Z,9.16
2022-10-17T18:46:12.423Z,9.23
2022-10-17T18:48:47.095Z,9.25
2022-10-17T18:51:15.631Z,9.11
2022-10-17T18:53:44.684Z,9.13
2022-10-17T18:56:13.540Z,8.84
2022-10-17T18:58:42.186Z,8.90
2022-10-17T19:01:15.434Z,9.04
2022-10-17T19:03:45.731Z,9.03
2022-10-17T19:06:15.932Z,8.80
2022-10-17T19:08:45.778Z,9.00
2022-10-17T19:11:17.883Z,9.03
2022-10-17T19:16:26.976Z,8.96
2022-10-17T19:19:10.180Z,9.12
2022-10-17T19:21:37.579Z,8.98
2022-10-17T19:24:06.740Z,9.11
2022-10-17T19:26:35.677Z,8.75
2022-10-17T19:29:03.037Z,8.93
2022-10-17T19:31:31.819Z,8.98
2022-10-17T19:33:59.790Z,8.95
2022-10-17T19:36:32.393Z,8.64
2022-10-17T19:39:05.448Z,8.88
2022-10-17T19:41:32.528Z,8.76
2022-10-17T19:44:00.550Z,8.58
2022-10-17T19:46:28.895Z,8.94
2022-10-17T19:48:55.972Z,8.64
2022-10-17T19:51:27.011Z,8.74
2022-10-17T19:53:55.580Z,8.80
2022-10-17T19:56:24.697Z,8.60
2022-10-17T19:58:51.620Z,8.71
2022-10-17T20:01:21.352Z,8.66
2022-10-17T20:03:48.537Z,8.55
2022-10-17T20:06:15.972Z,8.68
2022-10-17T20:08:42.805Z,8.35
2022-10-17T20:11:14.966Z,8.54
2022-10-17T20:13:42.262Z,8.59
2022-10-17T20:16:12.232Z,8.40
2022-10-17T20:18:40.850Z,8.25
2022-10-17T20:21:13.919Z,8.38
2022-10-17T20:23:41.489Z,8.39
2022-10-17T20:26:33.191Z,8.32
2022-10-17T20:29:01.718Z,8.11
2022-10-17T20:31:28.779Z,8.00
2022-10-17T20:33:59.979Z,8.13
2022-10-17T20:36:26.939Z,8.10
2022-10-17T20:38:57.859Z,7.91
2022-10-17T20:41:26.255Z,7.94
2022-10-17T20:43:54.453Z,7.88
2022-10-17T20:46:35.925Z,7.53
2022-10-17T20:49:04.508Z,7.61
2022-10-17T20:51:31.161Z,7.35
2022-10-17T20:53:57.925Z,7.51
2022-10-17T20:56:29.932Z,7.44
2022-10-17T20:58:59.068Z,7.32
2022-10-17T21:01:26.750Z,7.45
2022-10-17T21:03:53.973Z,7.39
2022-10-17T21:06:21.719Z,7.34
2022-10-17T21:08:49.258Z,7.16
2022-10-17T21:11:18.489Z,7.22
2022-10-17T21:13:45.991Z,7.16
2022-10-17T21:16:15.554Z,7.11
2022-10-17T21:18:42.724Z,7.09
2022-10-17T21:21:21.240Z,6.97
2022-10-17T21:23:50.168Z,7.13
2022-10-17T21:26:18.010Z,7.13
2022-10-17T21:28:46.018Z,7.06
2022-10-17T21:31:21.110Z,6.90
2022-10-17T21:33:59.066Z,6.75
2022-10-17T21:36:26.846Z,6.86
2022-10-17T21:38:55.001Z,6.71
2022-10-17T21:41:24.328Z,6.75
2022-10-17T21:43:58.860Z,6.86
2022-10-17T21:46:26.394Z,6.74
2022-10-17T21:48:53.400Z,6.72
2022-10-17T21:51:25.353Z,6.69
2022-10-17T21:53:53.983Z,6.69
2022-10-17T21:56:22.955Z,6.59
2022-10-17T21:58:50.987Z,6.49
2022-10-17T22:01:23.466Z,6.32
2022-10-17T22:03:52.764Z,6.40
2022-10-17T22:09:14.255Z,6.20
2022-10-17T22:11:41.889Z,6.13
2022-10-17T22:14:15.587Z,5.89
2022-10-17T22:16:45.028Z,6.02
2022-10-17T22:19:13.019Z,5.85
2022-10-17T22:21:40.045Z,5.88
2022-10-17T22:24:08.689Z,5.92
2022-10-17T22:26:37.428Z,5.78
2022-10-17T22:29:06.175Z,5.78
2022-10-17T22:31:32.822Z,5.72
2022-10-17T22:33:59.661Z,5.72
2022-10-17T22:36:26.837Z,5.78
2022-10-17T22:38:53.596Z,5.86
2022-10-17T22:41:20.629Z,5.56
2022-10-17T22:43:47.299Z,5.49
2022-10-17T22:46:16.671Z,5.74
2022-10-17T22:48:43.751Z,5.67
2022-10-17T22:51:10.903Z,5.54
2022-10-17T22:53:37.940Z,5.63
2022-10-17T22:56:13.968Z,5.66
2022-10-17T22:58:40.705Z,5.46
2022-10-17T23:01:10.026Z,5.70
2022-10-17T23:03:36.788Z,5.60
2022-10-17T23:06:03.991Z,5.54
2022-10-17T23:08:31.248Z,5.73
2022-10-17T23:10:58.216Z,5.41
2022-10-17T23:13:25.088Z,5.40
2022-10-17T23:15:56.490Z,5.28
2022-10-17T23:18:24.911Z,5.43
2022-10-17T23:20:52.494Z,5.52
2022-10-17T23:23:19.539Z,5.48
2022-10-17T23:25:46.683Z,5.27
2022-10-17T23:28:14.093Z,5.38
2022-10-17T23:30:41.077Z,5.27
2022-10-17T23:33:09.553Z,5.22
2022-10-17T23:35:36.160Z,5.23
2022-10-17T23:38:03.639Z,5.00
2022-10-17T23:40:30.610Z,5.22
2022-10-17T23:42:57.190Z,5.19
2022-10-17T23:45:23.862Z,5.10
2022-10-17T23:47:50.483Z,5.21
2022-10-17T23:50:17.110Z,5.13
2022-10-17T23:52:43.893Z,5.17
2022-10-17T23:55:10.992Z,5.19
2022-10-17T23:57:37.602Z,5.19
